sim
Sign-in with your pilot id or email,
or register
Callsign
Passwort

Schedule Details

Flight Number: EWG86 (2)
Departure: Cologne Bonn Airport (EDDK) at 17:55
Arrival: Munich Airport (EDDM) at 19:05
Route: Eurowings Passenger Schedule. Enter filed route here before submitting Pirep.

Weather Information
Getting current METAR information for EDDK 241020Z 20012KT 180V240 9999 FEW037 17/07 Q1005 NOSIG
Getting current METAR information for EDDM 241020Z 25009KT 9999 FEW026 19/14 Q1010 NOSIG

Schedule Frequency

Route Map